Position Fahrer Laps Zeit Diff Beste Runde Fahrzeug Status Gesamt Bonuspunkte Strafpunkte
1 Oliver Kern 13 25:53.368 - 1:58.015 Porsche 991.2 GT3 Cup Beendet 22,92 0 0
2 Adi Stettler 13 26:07.730 0:14.362 1:57.675 Porsche 991.2 GT3 Cup Beendet 18,75 0 0
3 Stefan Dressel 13 26:19.165 0:25.797 1:58.652 Porsche 991.2 GT3 Cup Beendet 14,58 0 0
4 Goe Stettler 13 26:19.582 0:26.214 1:57.607 Porsche 991.2 GT3 Cup Beendet 10,42 0 0
5 Dennis Hillmann 13 26:38.610 0:45.242 2:00.242 Porsche 991.2 GT3 Cup Beendet 6,25 0 0
6 Christian Nesmiyan 13 26:46.505 0:53.137 2:01.457 Porsche 718 Cayman GT4 Clubsport MR Beendet 23,21 0 0
7 Daniel Dressel 13 26:52.966 0:59.598 2:01.600 Porsche 718 Cayman GT4 Clubsport MR Beendet 19,64 0 0
8 Joe Dawber 13 27:04.619 1:11.251 2:02.415 Porsche 718 Cayman GT4 Clubsport MR Beendet 16,07 0 0
9 Ferenc Nagy 13 27:24.695 1:31.327 2:03.007 Porsche 718 Cayman GT4 Clubsport MR Beendet 12,5 0 0
10 Sebastian Holler 13 27:44.690 1:51.322 2:03.900 Porsche 718 Cayman GT4 Clubsport MR Beendet 8,93 0 0
11 Endika Vázquez 13 27:46.710 1:53.342 2:00.905 Porsche 991.2 GT3 Cup Beendet 2,08 0 0
12 René Patzer 13 27:59.787 2:06.419 2:03.032 Porsche 718 Cayman GT4 Clubsport MR Beendet 5,36 0 0
13 Ralf Waldek 12 27:11.610 -1L 2:02.765 Porsche 718 Cayman GT4 Clubsport MR Beendet 1,79 0 0

Rennverlauf

Die schnellsten 5 pro Runde

Runde 1

Pos Rennpos Fahrer Zeit Diff
1 1 Oliver Kern 2:02.698 -
2 2 Adi Stettler 2:05.403 0:02.705
3 3 Stefan Dressel 2:05.976 0:03.278
4 4 Dennis Hillmann 2:08.307 0:05.609
5 5 Christian Nesmiyan 2:18.041 0:15.343

Runde 2

Pos Rennpos Fahrer Zeit Diff
1 2 Adi Stettler 1:59.647 -
2 6 Goe Stettler 2:00.002 0:00.355
3 1 Oliver Kern 2:00.397 0:00.750
4 3 Dennis Hillmann 2:00.617 0:00.970
5 5 Christian Nesmiyan 2:02.915 0:03.268

Runde 3

Pos Rennpos Fahrer Zeit Diff
1 2 Adi Stettler 1:59.442 -
2 1 Oliver Kern 1:59.530 0:00.088
3 5 Goe Stettler 1:59.545 0:00.103
4 3 Stefan Dressel 2:00.002 0:00.560
5 7 Endika Vázquez 2:02.660 0:03.218

Runde 4

Pos Rennpos Fahrer Zeit Diff
1 2 Adi Stettler 1:58.690 -
2 1 Oliver Kern 1:59.065 0:00.375
3 4 Goe Stettler 1:59.525 0:00.835
4 3 Stefan Dressel 1:59.555 0:00.865
5 7 Endika Vázquez 2:01.522 0:02.832

Runde 5

Pos Rennpos Fahrer Zeit Diff
1 1 Oliver Kern 1:59.097 -
2 4 Goe Stettler 1:59.410 0:00.313
3 2 Stefan Dressel 1:59.515 0:00.418
4 5 Dennis Hillmann 2:00.450 0:01.353
5 7 Endika Vázquez 2:01.592 0:02.495

Runde 6

Pos Rennpos Fahrer Zeit Diff
1 4 Goe Stettler 1:58.240 -
2 1 Oliver Kern 1:58.515 0:00.275
3 3 Adi Stettler 1:58.625 0:00.385
4 2 Stefan Dressel 1:58.817 0:00.577
5 5 Dennis Hillmann 2:00.242 0:02.002

Runde 7

Pos Rennpos Fahrer Zeit Diff
1 3 Goe Stettler 1:58.762 -
2 1 Oliver Kern 1:59.530 0:00.768
3 2 Adi Stettler 2:00.357 0:01.595
4 5 Dennis Hillmann 2:00.560 0:01.798
5 6 Endika Vázquez 2:00.905 0:02.143

Runde 8

Pos Rennpos Fahrer Zeit Diff
1 2 Adi Stettler 1:58.750 -
2 3 Goe Stettler 1:59.620 0:00.870
3 1 Oliver Kern 1:59.740 0:00.990
4 4 Stefan Dressel 2:02.017 0:03.267
5 7 Daniel Dressel 2:02.247 0:03.497

Runde 9

Pos Rennpos Fahrer Zeit Diff
1 2 Adi Stettler 1:58.175 -
2 1 Oliver Kern 1:58.267 0:00.092
3 3 Stefan Dressel 1:58.847 0:00.672
4 5 Dennis Hillmann 2:00.500 0:02.325
5 7 Daniel Dressel 2:01.817 0:03.642

Runde 10

Pos Rennpos Fahrer Zeit Diff
1 2 Adi Stettler 1:58.030 -
2 4 Goe Stettler 1:58.032 0:00.002
3 3 Stefan Dressel 1:58.807 0:00.777
4 1 Oliver Kern 2:00.915 0:02.885
5 5 Dennis Hillmann 2:01.152 0:03.122

Runde 11

Pos Rennpos Fahrer Zeit Diff
1 2 Adi Stettler 1:57.675 -
2 1 Oliver Kern 1:58.015 0:00.340
3 4 Goe Stettler 1:58.147 0:00.472
4 3 Stefan Dressel 1:58.907 0:01.232
5 10 Endika Vázquez 2:01.162 0:03.487

Runde 12

Pos Rennpos Fahrer Zeit Diff
1 4 Goe Stettler 1:57.607 -
2 3 Stefan Dressel 1:58.652 0:01.045
3 1 Oliver Kern 1:58.662 0:01.055
4 6 Christian Nesmiyan 2:01.457 0:03.850
5 5 Dennis Hillmann 2:01.500 0:03.893

Runde 13

Pos Rennpos Fahrer Zeit Diff
1 4 Goe Stettler 1:57.692 -
2 2 Adi Stettler 1:58.382 0:00.690
3 1 Oliver Kern 1:58.937 0:01.245
4 3 Stefan Dressel 1:58.955 0:01.263
5 5 Dennis Hillmann 2:01.685 0:03.993

SERVER

0 / 61
virtualracing.org #1 GTM
Training 1Lime Rock Park -- Uphill Chicane
0 / 81
virtualracing.org #3 FS
Training 1Lime Rock Park -- Uphill Chicane
0 / 81
virtualracing.org #4 LSM
Training 1Spa-Francorchamps Endurance
0 / 34
virtualracing.org #5 VRF1S
Training 1Zandvoort 2021
0 / 34
virtualracing.org #6 VRCS
Training 1Magny-Cours
0 / 81
virtualracing.org #P1 BTCC
Training 1Silverstone National
0 / 81
virtualracing.org #P2 CA
Training 1Oulton Park Fosters
0 / 34
virtualracing.org #P3 Mini
Training 1Longford 1967
0 / 33
virtualracing.org #P4 IR18
Training 1Iowa Speedway Roval
0/31
virtualracing.org#4 GTC Training Standard
TrainingDaytona International Speedway - Road Course
0/31
virtualracing.org#5 GTC Training A
TrainingDaytona International Speedway - Road Course
0/24
virtualracing.org#30 ALT Training
TrainingFuji Speedway - Grand Prix Circuit 1968
0/32
virtualracing.org#33 GTC Starttest
TrainingDaytona International Speedway - Road Course